Saint Charles, Louisiana
Current Conditions -  °F | °C
As of 7:15 PM on Tuesday 21 Oct 2014 (Local Time) from KHUM Reporting Station
Clear Clear  
Wind Chill: 66°   Ceiling: Unl
Heat Index: 66°   Visibility: 10mi
Dew Point: 57°   Wind: 0mph
Humidity: 72%   Direction: NA
Pressure: 29.98"   Gusts: NA
Location:  29.7195°N, 90.5441°W
Report Text: KHUM 220015Z AUTO 00000KT 10SM CLR 19/14 A2998 RMK AO2 T01900138
Loading
Personal Weather Stations






























Interactive Weather Map
Tropical Storm Tracking
New forecast layout! Learn more

10-Day Weather Forecast

Advertisements
Track Severe Weather on mobile